Time;durP1;ratioP1;P1;durP2;ratioP2;P2;SDS_P1;SDS_P2;PMS_P1;PMS_P2;Temp;Humidity;BMP_temperature;BMP_pressure;BME280_temperature;BME280_humidity;BME280_pressure;Samples;Min_cycle;Max_cycle;Signal;HPM_P1;HPM_P2
2023/06/16 00:01:23;;;;;;;2.72;1.77;;;16.90;99.90;;;;;;5031571;28;20041;-44
2023/06/16 00:03:49;;;;;;;3.58;2.08;;;16.90;99.90;;;;;;5031752;28;20075;-44
2023/06/16 00:06:19;;;;;;;4.05;2.20;;;16.90;99.90;;;;;;5031622;28;20436;-44
2023/06/16 00:08:48;;;;;;;;;;;16.80;99.90;;;;;;5014258;28;20042;-48
2023/06/16 00:11:15;;;;;;;3.25;2.15;;;16.80;99.90;;;;;;5031616;28;19905;-44
2023/06/16 00:13:42;;;;;;;3.75;2.30;;;16.80;99.90;;;;;;5031322;28;20037;-51
2023/06/16 00:16:09;;;;;;;3.10;1.70;;;16.70;99.90;;;;;;5031571;28;20034;-45
2023/06/16 00:18:36;;;;;;;3.42;2.15;;;16.70;99.90;;;;;;5031312;28;20025;-46
2023/06/16 00:21:02;;;;;;;3.03;1.85;;;16.60;99.90;;;;;;5031746;28;20026;-46
2023/06/16 00:23:29;;;;;;;3.45;2.10;;;16.60;99.90;;;;;;5031467;28;20040;-44
2023/06/16 00:25:55;;;;;;;2.97;1.88;;;16.60;99.90;;;;;;5031202;28;20017;-49
2023/06/16 00:28:21;;;;;;;3.47;2.03;;;16.60;99.90;;;;;;5031446;28;20034;-49
2023/06/16 00:30:46;;;;;;;4.53;1.90;;;16.50;99.90;;;;;;5031191;28;20569;-45
2023/06/16 00:33:15;;;;;;;4.38;2.53;;;16.50;99.90;;;;;;5031329;28;20520;-47
2023/06/16 00:35:42;;;;;;;4.45;2.15;;;16.50;99.90;;;;;;5031226;28;20036;-47
2023/06/16 00:38:08;;;;;;;2.63;1.70;;;16.40;99.90;;;;;;5031492;28;20491;-50
2023/06/16 00:40:34;;;;;;;4.65;2.40;;;16.40;99.90;;;;;;5031039;28;20034;-49
2023/06/16 00:43:01;;;;;;;3.90;2.00;;;16.40;99.90;;;;;;5030435;28;20033;-51
2023/06/16 00:45:28;;;;;;;3.97;1.90;;;16.40;99.90;;;;;;5031219;28;20034;-45
2023/06/16 00:47:54;;;;;;;3.60;2.08;;;16.30;99.90;;;;;;5030832;28;20131;-51
2023/06/16 00:50:21;;;;;;;3.15;1.88;;;16.30;99.90;;;;;;5031104;28;20036;-48
2023/06/16 00:52:46;;;;;;;3.65;1.90;;;16.20;99.90;;;;;;5030992;28;20033;-48
2023/06/16 00:55:12;;;;;;;4.60;2.38;;;16.30;99.90;;;;;;5030095;28;20028;-44
2023/06/16 00:57:39;;;;;;;3.40;2.05;;;16.20;99.90;;;;;;5030561;28;20045;-47
2023/06/16 01:00:07;;;;;;;3.78;2.15;;;16.20;99.90;;;;;;5030535;28;20084;-45
2023/06/16 01:02:33;;;;;;;4.80;2.25;;;16.20;99.90;;;;;;5030578;28;20037;-47
2023/06/16 01:05:00;;;;;;;3.03;2.00;;;16.10;99.90;;;;;;5030674;28;20411;-44
2023/06/16 01:07:50;;;;;;;3.90;2.00;;;16.10;99.90;;;;;;5017145;28;20056;-44
2023/06/16 01:10:18;;;;;;;4.68;2.25;;;16.10;99.90;;;;;;5030538;28;20029;-49
2023/06/16 01:13:34;;;;;;;2.80;1.80;;;16.10;99.90;;;;;;5030141;28;20051;-45
2023/06/16 01:16:02;;;;;;;4.95;2.28;;;16.00;99.90;;;;;;4983841;28;20053;-44
2023/06/16 01:18:29;;;;;;;3.40;1.85;;;16.00;99.90;;;;;;5030373;28;20034;-48
2023/06/16 01:21:00;;;;;;;3.42;2.10;;;15.90;99.90;;;;;;5030394;28;20021;-44
2023/06/16 01:23:50;;;;;;;2.63;1.90;;;15.90;99.90;;;;;;5030242;28;20088;-44
2023/06/16 01:26:17;;;;;;;6.10;2.00;;;15.80;99.90;;;;;;5017596;28;20092;-44
2023/06/16 01:28:45;;;;;;;3.90;2.28;;;15.80;99.90;;;;;;5030475;28;20347;-46
2023/06/16 01:31:15;;;;;;;3.13;1.90;;;15.80;99.90;;;;;;5012755;28;20047;-43
2023/06/16 01:33:43;;;;;;;3.05;1.70;;;15.70;99.90;;;;;;5030422;28;20036;-44
2023/06/16 01:36:09;;;;;;;2.92;1.90;;;15.70;99.90;;;;;;5030372;28;20025;-47
2023/06/16 01:38:36;;;;;;;3.35;2.00;;;15.60;99.90;;;;;;5030446;28;20132;-50
2023/06/16 01:41:03;;;;;;;4.45;2.35;;;15.60;99.90;;;;;;5030274;28;20083;-44
2023/06/16 01:43:29;;;;;;;4.57;2.25;;;15.50;99.90;;;;;;5029847;28;20045;-44
2023/06/16 01:45:56;;;;;;;4.95;2.08;;;15.50;99.90;;;;;;5030172;28;20029;-44
2023/06/16 01:48:23;;;;;;;3.30;1.85;;;15.50;99.90;;;;;;5030401;28;20782;-47
2023/06/16 01:50:49;;;;;;;3.35;1.95;;;15.40;99.90;;;;;;5030660;28;20017;-46
2023/06/16 01:53:15;;;;;;;3.55;2.13;;;15.40;99.90;;;;;;5030295;28;20087;-44
2023/06/16 01:55:50;;;;;;;4.78;2.35;;;15.40;99.90;;;;;;5030334;28;20104;-48
2023/06/16 01:58:22;;;;;;;3.60;2.13;;;15.30;99.90;;;;;;5030129;28;20040;-46
2023/06/16 02:00:57;;;;;;;4.47;1.52;;;15.30;99.90;;;;;;5030053;28;20365;-44
2023/06/16 02:03:57;;;;;;;3.75;1.95;;;15.20;99.90;;;;;;5029970;28;20511;-46
2023/06/16 02:06:32;;;;;;;4.80;1.80;;;15.10;99.90;;;;;;5029293;28;20091;-52
2023/06/16 02:09:02;;;;;;;4.80;2.28;;;15.10;99.90;;;;;;5033868;28;20041;-47
2023/06/16 02:11:28;;;;;;;4.40;2.35;;;15.00;99.90;;;;;;5033973;28;20026;-48
2023/06/16 02:13:54;;;;;;;3.42;1.67;;;15.00;99.90;;;;;;5033552;28;20029;-50
2023/06/16 02:16:20;;;;;;;2.50;1.60;;;14.90;99.90;;;;;;5034040;28;20079;-46
2023/06/16 02:18:49;;;;;;;3.22;2.10;;;14.90;99.90;;;;;;5033756;28;20021;-48
2023/06/16 02:21:15;;;;;;;3.13;1.77;;;14.80;99.90;;;;;;5030139;28;20075;-48
2023/06/16 02:23:41;;;;;;;3.35;1.85;;;14.80;99.90;;;;;;5033708;28;20044;-47
2023/06/16 02:26:06;;;;;;;3.40;1.85;;;14.70;99.90;;;;;;5032949;28;20025;-52
2023/06/16 02:28:32;;;;;;;3.08;1.70;;;14.70;99.90;;;;;;5033724;28;20030;-49
2023/06/16 02:30:57;;;;;;;3.60;1.95;;;14.60;99.90;;;;;;5033384;28;20021;-48
2023/06/16 02:33:23;;;;;;;4.00;2.03;;;14.50;99.90;;;;;;5033635;28;20021;-48
2023/06/16 02:35:49;;;;;;;5.50;1.75;;;14.50;99.90;;;;;;5033414;28;20440;-44
2023/06/16 02:38:14;;;;;;;2.65;1.63;;;14.50;99.90;;;;;;5033448;28;20021;-49
2023/06/16 02:40:40;;;;;;;5.10;2.10;;;14.40;99.90;;;;;;5033169;28;20026;-47
2023/06/16 02:43:06;;;;;;;4.22;2.08;;;14.30;99.90;;;;;;5032745;28;20072;-47
2023/06/16 02:45:31;;;;;;;3.63;1.92;;;14.20;99.90;;;;;;5033239;28;20029;-48
2023/06/16 02:47:57;;;;;;;4.00;2.00;;;14.10;99.90;;;;;;5032799;28;20071;-44
2023/06/16 02:50:23;;;;;;;6.93;2.15;;;14.00;99.90;;;;;;5033260;28;20044;-46
2023/06/16 02:52:49;;;;;;;3.95;2.10;;;13.90;99.90;;;;;;5019003;28;20018;-46
2023/06/16 02:55:15;;;;;;;2.83;1.85;;;13.80;99.90;;;;;;5033454;28;20025;-46
2023/06/16 02:57:41;;;;;;;4.32;2.25;;;13.70;99.90;;;;;;5032720;28;20061;-48
2023/06/16 03:00:10;;;;;;;3.58;2.35;;;13.50;99.90;;;;;;5032967;28;20107;-45
2023/06/16 03:02:39;;;;;;;;;;;13.40;99.90;;;;;;5033146;28;20478;-46
2023/06/16 03:05:06;;;;;;;3.73;2.27;;;13.30;99.90;;;;;;5032682;28;19916;-47
2023/06/16 03:07:34;;;;;;;4.20;2.40;;;13.30;99.90;;;;;;5032932;28;20029;-46
2023/06/16 03:10:00;;;;;;;3.97;2.35;;;13.20;99.90;;;;;;5032853;28;20435;-44
2023/06/16 03:12:26;;;;;;;4.78;2.33;;;13.30;99.90;;;;;;5032241;28;20109;-46
2023/06/16 03:14:51;;;;;;;3.60;2.05;;;13.30;99.90;;;;;;5032884;28;20437;-49
2023/06/16 03:17:20;;;;;;;4.15;2.38;;;13.30;99.90;;;;;;5031551;28;20327;-43
2023/06/16 03:19:49;;;;;;;3.65;1.90;;;13.40;99.90;;;;;;5032734;28;20018;-50
2023/06/16 03:22:15;;;;;;;4.50;2.38;;;13.40;99.90;;;;;;5032310;28;20037;-48
2023/06/16 03:24:43;;;;;;;4.38;2.30;;;13.40;99.90;;;;;;5032776;28;20056;-49
2023/06/16 03:27:09;;;;;;;4.40;2.42;;;13.40;99.90;;;;;;5032083;28;20032;-49
2023/06/16 03:29:36;;;;;;;3.50;2.10;;;13.30;99.90;;;;;;5032589;28;20087;-49
2023/06/16 03:32:05;;;;;;;4.45;2.55;;;13.20;99.90;;;;;;5032586;28;20108;-47
2023/06/16 03:34:31;;;;;;;3.90;2.45;;;13.20;99.90;;;;;;5032132;28;20086;-45
2023/06/16 03:36:58;;;;;;;3.65;2.28;;;13.20;99.90;;;;;;5032426;28;20041;-43
2023/06/16 03:39:23;;;;;;;4.13;2.22;;;13.20;99.90;;;;;;5032109;28;20017;-43
2023/06/16 03:41:49;;;;;;;3.05;2.00;;;13.20;99.90;;;;;;5022529;28;20043;-44
2023/06/16 03:44:15;;;;;;;3.75;2.17;;;13.30;99.90;;;;;;5031314;28;20408;-46
2023/06/16 03:46:40;;;;;;;3.30;2.20;;;13.30;99.90;;;;;;5031649;28;20029;-45
2023/06/16 03:49:07;;;;;;;3.72;2.10;;;13.40;99.90;;;;;;5014378;28;20029;-43
2023/06/16 03:51:33;;;;;;;3.53;2.45;;;13.40;99.90;;;;;;5032191;28;20171;-42
2023/06/16 03:53:59;;;;;;;3.92;2.08;;;13.40;99.90;;;;;;5032025;28;20025;-43
2023/06/16 03:56:25;;;;;;;3.30;2.00;;;13.40;99.90;;;;;;5031665;28;20049;-43
2023/06/16 03:58:51;;;;;;;5.78;2.20;;;13.40;99.90;;;;;;5031603;28;20400;-43
2023/06/16 04:01:20;;;;;;;2.85;1.75;;;13.40;99.90;;;;;;5031861;28;20029;-43
2023/06/16 04:03:46;;;;;;;3.38;1.83;;;13.40;99.90;;;;;;5031780;28;20045;-44
2023/06/16 04:06:11;;;;;;;3.10;1.65;;;13.50;99.90;;;;;;5031927;28;20492;-43
2023/06/16 04:08:37;;;;;;;2.60;1.35;;;13.60;99.90;;;;;;5031858;28;20037;-44
2023/06/16 04:11:03;;;;;;;4.57;1.63;;;13.60;99.90;;;;;;5031525;28;20437;-54
2023/06/16 04:13:30;;;;;;;6.22;1.77;;;13.70;99.90;;;;;;5013965;28;20099;-55
2023/06/16 04:15:56;;;;;;;3.08;1.52;;;13.70;99.90;;;;;;5031393;28;20079;-42
2023/06/16 04:18:22;;;;;;;2.58;1.55;;;13.80;99.90;;;;;;5031581;28;20029;-50
2023/06/16 04:20:47;;;;;;;3.38;1.85;;;13.80;99.90;;;;;;5013888;28;20033;-43
2023/06/16 04:23:13;;;;;;;3.75;1.45;;;13.80;99.90;;;;;;5031389;28;20091;-43
2023/06/16 04:25:40;;;;;;;2.65;1.63;;;13.90;99.90;;;;;;5031192;28;20389;-49
2023/06/16 04:28:07;;;;;;;2.80;1.50;;;13.90;99.90;;;;;;5031032;28;20469;-46
2023/06/16 04:30:33;;;;;;;2.88;1.52;;;14.00;99.90;;;;;;5026146;28;20026;-45
2023/06/16 04:33:01;;;;;;;3.80;1.85;;;14.00;99.90;;;;;;5017646;28;20504;-46
2023/06/16 04:35:31;;;;;;;3.08;1.52;;;14.00;99.90;;;;;;5019966;28;20104;-48
2023/06/16 04:37:57;;;;;;;;;;;14.00;99.90;;;;;;5017006;28;20076;-46
2023/06/16 04:40:27;;;;;;;3.10;1.55;;;14.10;99.90;;;;;;5021513;28;19956;-43
2023/06/16 04:42:53;;;;;;;3.55;1.95;;;14.10;99.90;;;;;;5023380;28;20033;-43
2023/06/16 04:45:19;;;;;;;4.72;2.05;;;14.10;99.90;;;;;;5019045;28;20109;-45
2023/06/16 04:47:46;;;;;;;3.80;2.20;;;14.00;99.90;;;;;;5014513;28;20030;-45
2023/06/16 04:50:12;;;;;;;3.95;2.13;;;13.90;99.90;;;;;;5016905;28;20400;-50
2023/06/16 04:52:38;;;;;;;3.47;2.17;;;13.80;99.90;;;;;;5030781;28;20029;-45
2023/06/16 04:55:05;;;;;;;4.13;2.17;;;13.90;99.90;;;;;;5031044;28;20033;-47
2023/06/16 04:57:34;;;;;;;5.53;1.95;;;14.10;99.90;;;;;;5012654;28;20042;-48
2023/06/16 05:00:02;;;;;;;;;;;14.40;99.90;;;;;;5024035;28;20416;-50
2023/06/16 05:02:28;;;;;;;3.30;1.90;;;14.90;99.90;;;;;;5030655;28;19928;-51
2023/06/16 05:04:55;;;;;;;4.78;2.00;;;15.40;99.90;;;;;;5030860;28;20017;-47
2023/06/16 05:07:20;;;;;;;3.90;2.00;;;15.80;99.90;;;;;;5030785;28;20104;-44
2023/06/16 05:09:46;;;;;;;3.13;1.73;;;16.10;99.90;;;;;;5030714;28;20056;-47
2023/06/16 05:12:12;;;;;;;3.85;2.13;;;16.30;99.90;;;;;;5030368;28;20028;-45
2023/06/16 05:14:37;;;;;;;2.78;1.52;;;16.30;99.90;;;;;;5030532;28;20401;-47
2023/06/16 05:17:03;;;;;;;2.55;1.73;;;16.40;99.90;;;;;;5030673;28;20496;-49
2023/06/16 05:19:31;;;;;;;4.70;2.20;;;16.30;99.90;;;;;;5012647;28;20049;-48
2023/06/16 05:21:57;;;;;;;3.05;1.80;;;16.30;99.90;;;;;;5030705;28;20072;-45
2023/06/16 05:24:23;;;;;;;3.38;1.60;;;16.30;99.90;;;;;;5030465;28;20030;-47
2023/06/16 05:26:49;;;;;;;3.63;1.90;;;16.30;99.90;;;;;;5030601;28;20014;-44
2023/06/16 05:29:14;;;;;;;2.42;1.52;;;16.40;99.90;;;;;;5030405;28;20025;-45
2023/06/16 05:31:40;;;;;;;3.78;1.85;;;16.50;99.90;;;;;;5030340;28;20065;-43
2023/06/16 05:34:05;;;;;;;2.83;1.65;;;16.60;99.90;;;;;;5030647;28;20030;-46
2023/06/16 05:36:34;;;;;;;3.03;1.63;;;16.70;99.90;;;;;;5030350;28;20079;-48
2023/06/16 05:39:01;;;;;;;3.45;1.60;;;16.90;99.90;;;;;;5030426;28;20530;-45
2023/06/16 05:41:27;;;;;;;5.20;1.90;;;17.10;99.90;;;;;;5032674;28;20033;-48
2023/06/16 05:43:54;;;;;;;3.42;1.80;;;17.30;99.90;;;;;;5034209;28;20033;-43
2023/06/16 05:46:20;;;;;;;2.80;1.48;;;17.50;99.90;;;;;;5034053;28;20036;-43
2023/06/16 05:48:45;;;;;;;3.42;1.55;;;17.90;99.90;;;;;;5034279;28;20038;-49
2023/06/16 05:51:11;;;;;;;2.20;1.35;;;18.30;99.90;;;;;;5034339;28;20026;-47
2023/06/16 05:53:37;;;;;;;1.85;1.23;;;18.80;99.90;;;;;;5034087;28;20477;-50
2023/06/16 05:56:03;;;;;;;2.13;1.20;;;19.40;99.90;;;;;;5034178;28;20041;-46
2023/06/16 05:58:29;;;;;;;2.08;1.25;;;20.00;99.90;;;;;;5034135;28;20460;-45
2023/06/16 06:00:54;;;;;;;3.38;1.10;;;20.70;99.90;;;;;;5034142;28;20092;-47
2023/06/16 06:03:20;;;;;;;1.95;1.13;;;21.40;99.90;;;;;;5034054;28;20140;-47
2023/06/16 06:05:47;;;;;;;2.83;1.00;;;22.10;99.90;;;;;;5016363;28;20009;-47
2023/06/16 06:08:13;;;;;;;3.65;1.38;;;22.70;99.90;;;;;;5034158;28;20105;-43
2023/06/16 06:10:38;;;;;;;1.33;0.95;;;23.10;99.90;;;;;;5033873;28;20463;-43
2023/06/16 06:13:04;;;;;;;2.10;1.30;;;23.70;99.90;;;;;;5033664;28;20018;-49
2023/06/16 06:15:30;;;;;;;3.38;1.20;;;24.10;99.90;;;;;;5033687;28;20472;-44
2023/06/16 06:17:56;;;;;;;3.38;1.27;;;24.60;99.90;;;;;;5033953;28;20032;-46
2023/06/16 06:20:21;;;;;;;1.70;1.20;;;25.00;99.90;;;;;;5033915;28;20026;-47
2023/06/16 06:22:47;;;;;;;2.85;1.08;;;25.30;99.90;;;;;;5033887;28;20059;-43
2023/06/16 06:25:13;;;;;;;1.15;1.00;;;25.70;99.90;;;;;;5033505;28;20048;-43
2023/06/16 06:27:40;;;;;;;1.70;1.13;;;25.90;98.90;;;;;;5032978;28;20476;-42
2023/06/16 06:30:06;;;;;;;2.38;1.10;;;26.10;98.00;;;;;;5033421;28;20021;-45
2023/06/16 06:32:32;;;;;;;1.45;1.00;;;26.50;97.00;;;;;;5033459;28;20033;-48
2023/06/16 06:34:57;;;;;;;1.70;0.93;;;26.70;97.10;;;;;;5033693;28;20018;-49
2023/06/16 06:37:29;;;;;;;1.52;1.10;;;27.00;94.20;;;;;;5033431;28;20021;-44
2023/06/16 06:39:55;;;;;;;1.25;1.02;;;27.10;94.70;;;;;;5033378;28;20030;-44
2023/06/16 06:42:22;;;;;;;2.50;1.08;;;27.30;93.90;;;;;;5033204;28;20041;-46
2023/06/16 06:44:47;;;;;;;1.83;1.00;;;27.70;92.30;;;;;;5033398;28;20032;-48
2023/06/16 06:47:13;;;;;;;1.95;1.25;;;27.80;89.40;;;;;;5033425;28;20017;-47
2023/06/16 06:49:39;;;;;;;1.23;1.00;;;28.00;89.10;;;;;;5015589;28;20029;-47
2023/06/16 06:52:05;;;;;;;1.30;1.00;;;28.10;90.00;;;;;;5033233;28;20026;-43
2023/06/16 06:54:31;;;;;;;1.80;1.10;;;28.10;87.10;;;;;;5033142;28;20025;-44
2023/06/16 06:56:56;;;;;;;2.15;1.20;;;28.30;87.50;;;;;;5033002;28;20117;-46
2023/06/16 06:59:22;;;;;;;1.52;0.98;;;28.50;85.00;;;;;;5033158;28;20473;-50
2023/06/16 07:01:47;;;;;;;2.10;1.15;;;28.60;86.30;;;;;;5014377;28;20034;-49
2023/06/16 07:04:13;;;;;;;1.88;1.15;;;28.80;84.00;;;;;;5031082;28;20369;-46
2023/06/16 07:06:39;;;;;;;1.63;1.10;;;29.10;81.80;;;;;;5031899;28;20021;-51
2023/06/16 07:09:05;;;;;;;1.98;1.15;;;29.00;79.00;;;;;;5030295;28;20152;-43
2023/06/16 07:11:30;;;;;;;1.70;1.00;;;29.00;78.20;;;;;;5031699;28;20112;-53
2023/06/16 07:13:56;;;;;;;1.70;1.02;;;29.20;77.40;;;;;;5030097;28;20116;-51
2023/06/16 07:16:22;;;;;;;1.48;1.08;;;29.40;74.70;;;;;;5031678;28;20034;-42
2023/06/16 07:18:48;;;;;;;2.47;1.10;;;29.50;74.10;;;;;;5031375;28;20025;-47
2023/06/16 07:21:13;;;;;;;3.15;1.20;;;29.50;72.10;;;;;;5030950;28;20377;-48
2023/06/16 07:23:39;;;;;;;1.60;1.10;;;29.60;67.80;;;;;;5031408;28;20041;-43
2023/06/16 07:26:04;;;;;;;3.42;1.40;;;29.90;70.00;;;;;;5030046;28;20018;-44
2023/06/16 07:28:30;;;;;;;1.33;1.00;;;30.20;68.90;;;;;;5031442;28;20428;-56
2023/06/16 07:30:56;;;;;;;1.45;0.90;;;30.50;67.00;;;;;;5030111;28;20024;-46
2023/06/16 07:33:22;;;;;;;1.40;1.00;;;30.80;67.50;;;;;;5031452;28;20037;-51
2023/06/16 07:35:48;;;;;;;2.35;1.10;;;31.00;64.70;;;;;;5030906;28;20445;-46
2023/06/16 07:38:14;;;;;;;2.00;1.08;;;31.10;66.40;;;;;;5030598;28;20034;-46
2023/06/16 07:40:40;;;;;;;2.22;1.40;;;31.20;64.70;;;;;;5031420;28;20034;-46
2023/06/16 07:43:06;;;;;;;1.65;1.10;;;31.70;65.10;;;;;;5029608;28;20550;-51
2023/06/16 07:45:33;;;;;;;1.83;0.90;;;32.00;64.70;;;;;;5031176;28;20072;-50
2023/06/16 07:48:02;;;;;;;1.38;0.98;;;32.30;65.00;;;;;;5029845;28;20029;-50
2023/06/16 07:50:27;;;;;;;2.58;1.45;;;32.60;62.60;;;;;;5030804;28;20028;-49
2023/06/16 07:52:53;;;;;;;2.10;1.02;;;32.80;61.20;;;;;;5032034;28;20109;-47
2023/06/16 07:55:19;;;;;;;2.38;0.90;;;33.20;61.00;;;;;;5032072;28;20082;-54
2023/06/16 07:57:45;;;;;;;1.58;1.05;;;33.30;60.70;;;;;;5031630;28;20098;-42
2023/06/16 08:00:12;;;;;;;1.30;0.95;;;33.60;56.70;;;;;;5031888;28;20065;-43
2023/06/16 08:02:42;;;;;;;1.15;0.95;;;33.70;58.00;;;;;;5031552;28;20037;-42
2023/06/16 08:05:09;;;;;;;1.88;1.10;;;33.90;58.50;;;;;;5031482;28;20064;-44
2023/06/16 08:07:35;;;;;;;1.83;1.20;;;34.00;56.60;;;;;;5031774;28;20037;-52
2023/06/16 08:10:03;;;;;;;2.05;1.10;;;34.20;55.70;;;;;;5031901;28;20030;-43
2023/06/16 08:12:28;;;;;;;1.42;1.00;;;34.50;55.40;;;;;;5031120;28;20036;-42
2023/06/16 08:14:54;;;;;;;1.58;1.08;;;34.80;55.50;;;;;;5014986;28;20033;-46
2023/06/16 08:17:20;;;;;;;1.75;1.10;;;34.80;56.90;;;;;;5016116;28;20040;-49
2023/06/16 08:19:45;;;;;;;1.77;1.10;;;34.60;51.60;;;;;;5024129;28;20033;-47
2023/06/16 08:22:11;;;;;;;1.40;1.00;;;34.50;53.50;;;;;;5023053;28;20030;-48
2023/06/16 08:24:37;;;;;;;1.65;1.02;;;34.40;53.90;;;;;;5007479;28;20075;-45
2023/06/16 08:27:04;;;;;;;1.67;1.00;;;34.50;54.20;;;;;;5027745;28;20050;-46
2023/06/16 08:29:30;;;;;;;1.30;0.90;;;34.50;52.60;;;;;;5023131;28;20025;-55
2023/06/16 08:31:55;;;;;;;2.25;1.20;;;34.50;51.90;;;;;;5024642;28;20025;-43
2023/06/16 08:34:21;;;;;;;2.60;1.13;;;34.40;51.20;;;;;;5020966;28;20428;-46
2023/06/16 08:36:47;;;;;;;1.77;1.23;;;34.40;51.50;;;;;;5029239;28;20022;-48
2023/06/16 08:39:13;;;;;;;2.22;1.17;;;34.40;53.90;;;;;;5024571;28;20129;-47
2023/06/16 08:41:38;;;;;;;2.28;1.30;;;34.60;52.20;;;;;;5016288;28;20500;-46
2023/06/16 08:44:10;;;;;;;1.90;1.20;;;34.60;51.30;;;;;;5026169;28;20041;-43
2023/06/16 08:46:38;;;;;;;1.95;1.20;;;34.60;50.70;;;;;;5021381;28;20169;-52
2023/06/16 08:49:04;;;;;;;1.98;1.17;;;34.70;51.10;;;;;;5019307;28;20026;-51
2023/06/16 08:51:34;;;;;;;1.58;1.13;;;34.90;49.70;;;;;;5027570;28;20033;-54
2023/06/16 08:54:06;;;;;;;1.90;1.20;;;34.90;48.00;;;;;;5030880;28;20021;-42
2023/06/16 08:56:32;;;;;;;1.20;0.95;;;35.00;48.00;;;;;;5030541;28;20045;-45
2023/06/16 08:59:01;;;;;;;2.05;1.40;;;35.30;49.70;;;;;;5030622;28;20021;-44
2023/06/16 09:01:28;;;;;;;1.58;1.02;;;35.50;48.90;;;;;;5030336;28;20033;-45
2023/06/16 09:03:55;;;;;;;1.40;1.00;;;35.50;48.30;;;;;;5004820;28;20041;-43
2023/06/16 09:06:21;;;;;;;2.20;1.07;;;35.30;48.00;;;;;;5018516;28;20121;-44
2023/06/16 09:08:47;;;;;;;3.30;1.10;;;35.10;45.10;;;;;;5016948;28;20077;-44
2023/06/16 09:11:21;;;;;;;1.45;0.95;;;34.60;48.90;;;;;;5020189;28;20030;-42
2023/06/16 09:13:48;;;;;;;1.50;1.00;;;34.30;47.40;;;;;;5024335;28;20033;-43
2023/06/16 09:16:17;;;;;;;2.08;1.30;;;33.90;48.10;;;;;;5019752;28;20108;-42
2023/06/16 09:18:44;;;;;;;1.63;1.00;;;34.00;47.90;;;;;;5015795;28;20087;-43
2023/06/16 09:21:11;;;;;;;1.83;1.08;;;34.20;48.60;;;;;;5020601;28;20043;-42
2023/06/16 09:23:38;;;;;;;1.20;0.90;;;34.30;46.90;;;;;;5021371;28;20083;-42
2023/06/16 09:26:13;;;;;;;1.35;1.00;;;34.40;48.60;;;;;;5018683;28;20029;-42
2023/06/16 09:28:39;;;;;;;1.52;1.05;;;34.50;50.30;;;;;;5024263;28;20506;-43
2023/06/16 09:31:12;;;;;;;1.13;0.93;;;34.70;48.30;;;;;;5024574;28;20022;-42
2023/06/16 09:33:38;;;;;;;1.77;1.20;;;34.40;45.60;;;;;;5027355;28;20477;-43
2023/06/16 09:36:05;;;;;;;1.77;0.98;;;34.40;46.50;;;;;;5024416;28;20026;-42
2023/06/16 09:38:38;;;;;;;1.40;1.00;;;34.60;45.20;;;;;;5027579;28;20112;-44
2023/06/16 09:41:08;;;;;;;1.38;0.80;;;34.70;44.70;;;;;;5024275;28;20022;-43
2023/06/16 09:43:34;;;;;;;1.20;0.80;;;34.80;44.70;;;;;;5027305;28;20034;-42
2023/06/16 09:46:00;;;;;;;1.30;0.80;;;34.80;45.70;;;;;;5024892;28;20021;-42
2023/06/16 09:48:27;;;;;;;1.48;0.88;;;35.00;44.90;;;;;;5026564;28;20099;-45
2023/06/16 09:50:55;;;;;;;1.60;1.02;;;34.80;44.10;;;;;;5006192;28;20053;-42
2023/06/16 09:53:26;;;;;;;1.20;0.90;;;34.70;42.50;;;;;;5024340;28;20026;-42
2023/06/16 09:55:53;;;;;;;3.35;1.40;;;34.60;46.50;;;;;;5030068;28;20108;-42
2023/06/16 09:58:20;;;;;;;1.38;0.95;;;34.90;47.70;;;;;;5030196;28;20041;-50
2023/06/16 10:00:45;;;;;;;1.95;1.10;;;35.20;45.40;;;;;;5029993;28;20039;-42
2023/06/16 10:03:12;;;;;;;1.50;0.95;;;34.90;45.20;;;;;;5026566;28;20030;-42
2023/06/16 10:05:42;;;;;;;1.27;0.77;;;34.80;43.40;;;;;;5029867;28;20025;-42
2023/06/16 10:08:07;;;;;;;3.67;1.13;;;35.10;47.10;;;;;;5029981;28;20029;-42
2023/06/16 10:10:38;;;;;;;1.02;0.80;;;35.20;45.40;;;;;;5028954;28;20081;-42
2023/06/16 10:13:08;;;;;;;1.35;0.90;;;35.40;47.10;;;;;;5029122;28;20477;-41
2023/06/16 10:15:40;;;;;;;1.13;0.90;;;35.10;43.90;;;;;;5028542;28;20065;-42
2023/06/16 10:18:07;;;;;;;1.75;1.08;;;35.10;46.60;;;;;;5010530;28;20606;-42
2023/06/16 10:20:34;;;;;;;1.38;0.90;;;35.20;45.90;;;;;;5023380;28;20030;-41
2023/06/16 10:23:00;;;;;;;1.23;0.98;;;35.20;44.50;;;;;;5024023;28;20052;-41
2023/06/16 10:25:28;;;;;;;1.65;1.00;;;35.30;41.70;;;;;;5026139;28;20523;-41
2023/06/16 10:27:55;;;;;;;1.40;0.80;;;34.70;42.00;;;;;;5022941;28;20084;-41
2023/06/16 10:30:23;;;;;;;1.52;0.90;;;34.80;44.70;;;;;;5019253;28;20088;-43
2023/06/16 10:32:49;;;;;;;1.40;0.95;;;34.80;46.10;;;;;;5020080;28;20393;-44
2023/06/16 10:35:17;;;;;;;1.52;0.80;;;34.70;45.20;;;;;;5018639;28;20041;-42
2023/06/16 10:37:42;;;;;;;1.35;0.85;;;35.00;43.90;;;;;;5028271;28;20033;-41
2023/06/16 10:40:12;;;;;;;1.38;1.00;;;35.10;47.70;;;;;;5025842;28;20017;-42
2023/06/16 10:42:39;;;;;;;1.90;1.17;;;35.10;44.80;;;;;;5029078;28;20087;-42
2023/06/16 10:45:28;;;;;;;0.93;0.70;;;35.10;45.40;;;;;;5030291;28;20026;-50
2023/06/16 10:48:03;;;;;;;1.45;1.05;;;35.40;46.10;;;;;;5025371;28;20068;-42
2023/06/16 10:50:42;;;;;;;1.95;1.10;;;35.00;44.50;;;;;;5030860;28;20037;-49
2023/06/16 10:53:16;;;;;;;1.90;1.08;;;35.10;47.10;;;;;;5027297;28;20022;-42
2023/06/16 10:55:44;;;;;;;1.13;0.90;;;34.80;43.00;;;;;;5024832;28;20428;-42
2023/06/16 10:58:16;;;;;;;2.15;0.95;;;34.60;44.90;;;;;;5018778;28;20349;-43
2023/06/16 11:00:42;;;;;;;2.35;1.05;;;34.70;47.20;;;;;;5023691;28;20030;-42
2023/06/16 11:03:08;;;;;;;1.42;1.05;;;34.80;47.70;;;;;;5027378;28;20552;-43
2023/06/16 11:05:38;;;;;;;1.17;0.88;;;35.20;48.00;;;;;;5031596;28;20056;-41
2023/06/16 11:08:08;;;;;;;1.88;1.08;;;35.10;43.60;;;;;;5031831;28;20117;-44
2023/06/16 11:10:54;;;;;;;3.88;1.00;;;34.90;44.40;;;;;;5024546;28;20022;-44
2023/06/16 11:13:26;;;;;;;1.90;0.98;;;35.10;46.50;;;;;;5027099;28;20087;-46
2023/06/16 11:15:55;;;;;;;1.45;0.98;;;35.20;45.90;;;;;;5022181;28;20029;-43
2023/06/16 11:18:28;;;;;;;1.30;0.90;;;35.30;46.40;;;;;;5027491;28;20436;-42
2023/06/16 11:21:04;;;;;;;4.18;2.08;;;35.40;45.30;;;;;;5022343;28;20031;-49
2023/06/16 11:23:31;;;;;;;1.48;1.13;;;34.50;44.70;;;;;;5018839;28;20057;-44
2023/06/16 11:26:11;;;;;;;6.05;1.10;;;34.10;47.90;;;;;;5024906;28;20113;-43
2023/06/16 11:28:40;;;;;;;2.45;1.02;;;34.00;49.00;;;;;;5027625;28;20519;-42
2023/06/16 11:31:07;;;;;;;1.33;1.00;;;34.00;45.80;;;;;;5031581;28;20025;-43
2023/06/16 11:33:33;;;;;;;1.58;0.90;;;33.90;47.00;;;;;;5026580;28;20026;-42
2023/06/16 11:36:16;;;;;;;1.42;0.88;;;34.10;46.60;;;;;;5029462;28;20033;-44
2023/06/16 11:38:43;;;;;;;1.33;0.95;;;34.30;45.20;;;;;;5023184;28;20025;-50
2023/06/16 11:41:15;;;;;;;4.90;3.33;;;34.50;48.10;;;;;;5013686;28;20084;-48
2023/06/16 11:43:42;;;;;;;2.30;1.40;;;34.40;46.80;;;;;;5019791;28;20037;-47
2023/06/16 11:46:08;;;;;;;1.73;1.10;;;34.00;44.30;;;;;;5019105;28;20074;-47
2023/06/16 11:48:33;;;;;;;1.80;1.00;;;33.50;42.70;;;;;;5031021;28;20041;-45
2023/06/16 11:51:00;;;;;;;1.17;0.85;;;32.90;42.50;;;;;;5032178;28;20053;-53
2023/06/16 11:53:26;;;;;;;1.55;0.93;;;32.40;45.30;;;;;;5026572;28;20064;-45
2023/06/16 11:55:51;;;;;;;1.70;0.95;;;32.30;46.40;;;;;;5030493;28;20057;-44
2023/06/16 11:58:17;;;;;;;2.67;0.90;;;32.20;45.70;;;;;;5031888;28;20063;-46
2023/06/16 12:00:45;;;;;;;1.45;0.90;;;31.90;46.00;;;;;;5031740;28;20531;-43
2023/06/16 12:03:11;;;;;;;1.20;0.90;;;31.90;48.40;;;;;;5030810;28;20049;-43
2023/06/16 12:05:38;;;;;;;1.65;1.00;;;32.00;46.90;;;;;;5031363;28;20030;-40
2023/06/16 12:08:04;;;;;;;2.30;1.02;;;31.80;46.90;;;;;;5031722;28;20472;-45
2023/06/16 12:10:29;;;;;;;3.58;1.17;;;32.00;48.10;;;;;;5031623;28;20033;-42
2023/06/16 12:12:55;;;;;;;1.27;0.90;;;32.20;46.30;;;;;;5031829;28;20384;-49
2023/06/16 12:15:22;;;;;;;2.33;0.95;;;32.20;44.80;;;;;;5031458;28;20038;-51
2023/06/16 12:17:48;;;;;;;1.67;1.05;;;31.70;45.30;;;;;;5031822;28;20026;-51
2023/06/16 12:20:16;;;;;;;2.40;1.17;;;31.30;46.00;;;;;;5031366;28;20052;-54
2023/06/16 12:22:44;;;;;;;1.42;0.90;;;31.20;46.30;;;;;;5031506;28;20041;-44
2023/06/16 12:25:15;;;;;;;3.10;1.33;;;31.30;47.70;;;;;;5031639;28;20021;-53
2023/06/16 12:27:44;;;;;;;1.30;0.88;;;31.30;47.80;;;;;;5012776;28;20021;-52
2023/06/16 12:30:11;;;;;;;1.45;0.90;;;31.10;46.80;;;;;;5031204;28;20017;-57
2023/06/16 12:32:37;;;;;;;2.20;1.10;;;31.10;46.70;;;;;;5031515;28;20052;-49
2023/06/16 12:35:04;;;;;;;1.58;1.10;;;31.10;46.50;;;;;;5030972;28;20061;-45
2023/06/16 12:37:30;;;;;;;1.20;0.90;;;31.20;48.40;;;;;;5025792;28;20038;-48
2023/06/16 12:40:03;;;;;;;1.92;1.10;;;31.10;45.80;;;;;;5030628;28;20031;-54
2023/06/16 12:42:29;;;;;;;1.80;0.88;;;31.10;48.80;;;;;;5026909;28;20037;-48
2023/06/16 12:45:02;;;;;;;1.70;1.02;;;31.10;46.10;;;;;;5031099;28;20109;-51
2023/06/16 12:47:29;;;;;;;2.03;0.90;;;30.80;45.80;;;;;;5020285;28;20026;-49
2023/06/16 12:49:56;;;;;;;1.67;1.10;;;30.90;47.40;;;;;;5030940;28;20047;-50